Time;durP1;ratioP1;P1;durP2;ratioP2;P2;SDS_P1;SDS_P2;PMS_P1;PMS_P2;Temp;Humidity;BMP_temperature;BMP_pressure;BME280_temperature;BME280_humidity;BME280_pressure;Samples;Min_cycle;Max_cycle;Signal;HPM_P1;HPM_P2
2022/03/27 05:31:29;;;;;;;24.30;7.57;;;;;;;6.74;58.63;102708.41;5165627;23;122365;-88
2022/03/27 05:40:29;;;;;;;17.10;5.72;;;;;;;7.44;58.62;102804.19;5638292;23;122352;31
2022/03/27 07:44:23;;;;;;;29.15;9.43;;;;;;;10.30;59.87;102731.41;2717890;23;124985;-90
2022/03/27 07:46:58;;;;;;;26.98;8.57;;;;;;;10.52;59.69;102748.56;4807490;29;120622;-88
2022/03/27 07:49:29;;;;;;;22.23;8.23;;;;;;;10.83;58.85;102788.00;4801310;29;123545;-90
2022/03/27 07:51:54;;;;;;;23.27;8.50;;;;;;;10.58;58.57;102735.97;4806653;29;119087;-90
2022/03/27 07:54:20;;;;;;;24.33;8.52;;;;;;;10.84;58.29;102761.31;4786346;29;123304;-89
2022/03/27 07:56:46;;;;;;;21.55;7.55;;;;;;;10.99;58.58;102774.56;4806839;29;119467;-91
2022/03/27 07:59:20;;;;;;;24.20;7.30;;;;;;;10.72;58.11;102713.19;4835567;29;119690;-90
2022/03/27 08:01:46;;;;;;;20.88;7.47;;;;;;;10.97;58.22;102743.22;4835064;29;122955;-92
2022/03/27 08:04:14;;;;;;;28.20;8.43;;;;;;;11.27;57.74;102773.59;4835706;29;119473;-91
2022/03/27 08:06:39;;;;;;;23.02;7.68;;;;;;;11.02;57.24;102732.56;4804848;29;121932;-90
2022/03/27 08:09:08;;;;;;;24.80;8.18;;;;;;;11.23;58.03;102744.59;4822484;28;122454;-89
2022/03/27 08:11:41;;;;;;;27.08;8.20;;;;;;;11.29;57.43;102737.47;4820673;29;119627;-90
2022/03/27 08:14:10;;;;;;;34.08;9.05;;;;;;;11.64;57.63;102766.63;4826760;29;122051;-91
2022/03/27 08:16:37;;;;;;;22.95;8.00;;;;;;;11.81;57.37;102784.94;4801328;29;119489;-90
2022/03/27 08:19:03;;;;;;;24.40;7.90;;;;;;;11.85;56.98;102769.19;4826986;28;119992;-91
2022/03/27 08:21:29;;;;;;;24.55;7.18;;;;;;;11.88;56.64;102762.88;4818606;29;120280;-90
2022/03/27 08:23:55;;;;;;;28.25;7.97;;;;;;;11.88;56.65;102742.84;4830652;28;119940;-91
2022/03/27 08:29:04;;;;;;;;;;;;;;;12.23;56.61;102778.19;4827241;29;123713;-91
2022/03/27 08:31:31;;;;;;;25.58;7.28;;;;;;;12.33;56.69;102781.25;4818860;29;119756;-91
2022/03/27 08:33:58;;;;;;;24.25;7.75;;;;;;;12.41;55.85;102778.00;4831403;29;119831;-91
2022/03/27 08:36:23;;;;;;;27.23;7.35;;;;;;;12.28;56.71;102747.47;4817306;29;119582;-91
2022/03/27 08:38:51;;;;;;;27.50;7.28;;;;;;;12.25;56.32;102734.53;4803174;29;122447;-93
2022/03/27 08:41:17;;;;;;;27.27;6.65;;;;;;;12.18;55.88;102701.63;4816466;29;123168;-90
2022/03/27 08:43:43;;;;;;;23.13;7.03;;;;;;;12.45;55.71;102733.91;4801485;29;121331;-90
2022/03/27 08:46:12;;;;;;;30.77;7.80;;;;;;;12.64;56.24;102752.53;4805854;29;121507;-91
2022/03/27 08:48:49;;;;;;;24.08;7.35;;;;;;;12.87;55.10;102763.63;4819875;29;120342;-90
2022/03/27 08:51:41;;;;;;;27.52;6.95;;;;;;;12.84;55.08;102744.38;4843314;28;119692;-90
2022/03/27 08:54:13;;;;;;;27.95;7.72;;;;;;;12.68;55.36;102708.41;4853988;28;120395;-91
2022/03/27 08:56:56;;;;;;;26.88;7.60;;;;;;;12.64;55.25;102689.19;4823508;29;121998;-92
2022/03/27 08:59:22;;;;;;;26.30;7.78;;;;;;;12.92;55.96;102726.56;4806148;29;119827;-93
2022/03/27 09:01:50;;;;;;;26.13;7.93;;;;;;;13.36;55.35;102775.09;4828737;29;122426;-91
2022/03/27 09:04:17;;;;;;;30.67;7.50;;;;;;;13.03;54.77;102715.38;4832455;28;119635;-90
2022/03/27 09:06:55;;;;;;;26.15;6.60;;;;;;;13.29;54.96;102744.91;4823130;29;122228;-92
2022/03/27 09:09:20;;;;;;;28.48;7.45;;;;;;;13.28;55.01;102732.31;4820471;29;122936;-91
2022/03/27 09:11:52;;;;;;;23.55;7.65;;;;;;;13.25;54.74;102708.34;4806781;29;119929;-92
2022/03/27 09:14:20;;;;;;;24.55;6.95;;;;;;;13.41;54.75;102729.72;4804743;28;121844;-90
2022/03/27 09:17:07;;;;;;;19.60;6.43;;;;;;;13.68;54.96;102748.94;4820808;29;123112;-92
2022/03/27 09:19:39;;;;;;;21.40;6.25;;;;;;;13.73;54.26;102752.00;4809952;29;119720;-91
2022/03/27 09:22:32;;;;;;;23.80;6.63;;;;;;;13.86;53.74;102760.44;4821114;29;123432;-93
2022/03/27 09:25:01;;;;;;;23.20;6.22;;;;;;;13.83;52.71;102742.75;4810857;29;119868;-91
2022/03/27 09:27:37;;;;;;;22.17;5.88;;;;;;;13.94;52.62;102753.56;4802920;29;122067;-90
2022/03/27 09:30:07;;;;;;;19.90;5.32;;;;;;;13.98;51.11;102757.06;4821073;29;122908;-90
2022/03/27 09:32:35;;;;;;;17.77;5.78;;;;;;;14.03;51.43;102750.28;4820185;28;120003;-92
2022/03/27 09:35:13;;;;;;;23.33;5.63;;;;;;;14.10;51.76;102753.66;4799670;29;122345;-91
2022/03/27 09:37:47;;;;;;;24.80;6.45;;;;;;;14.02;52.21;102727.41;4804882;29;123639;-89
2022/03/27 09:40:16;;;;;;;23.70;6.20;;;;;;;13.86;52.76;102693.44;4821756;29;119849;-91
2022/03/27 09:42:43;;;;;;;26.35;6.55;;;;;;;14.34;52.64;102743.31;4840701;29;119449;-91
2022/03/27 09:45:17;;;;;;;21.60;5.32;;;;;;;14.19;51.71;102708.91;4802858;29;119808;-90
2022/03/27 09:47:45;;;;;;;20.73;5.60;;;;;;;14.16;51.10;102700.72;4820540;29;122675;-92
2022/03/27 09:50:40;;;;;;;20.40;5.82;;;;;;;14.51;50.72;102746.94;4815794;29;123780;-90
2022/03/27 09:53:27;;;;;;;21.83;5.65;;;;;;;14.58;50.00;102740.47;4806208;29;120053;-90
2022/03/27 09:56:11;;;;;;;18.42;4.85;;;;;;;14.63;49.19;102740.75;4820460;29;122299;-89
2022/03/27 09:58:44;;;;;;;19.85;4.82;;;;;;;14.65;48.97;102738.31;4836877;29;120489;-90
2022/03/27 10:01:18;;;;;;;18.20;4.38;;;;;;;14.59;47.95;102728.22;4802926;29;119764;-91
2022/03/27 10:03:57;;;;;;;16.85;5.30;;;;;;;14.73;49.42;102736.97;4802410;29;122297;-91
2022/03/27 10:06:30;;;;;;;18.88;5.10;;;;;;;14.78;49.71;102732.91;4827936;28;123530;-94
2022/03/27 10:08:57;;;;;;;20.67;5.40;;;;;;;14.83;49.43;102742.66;4805963;28;121969;-92
2022/03/27 10:11:23;;;;;;;18.85;5.03;;;;;;;14.84;49.06;102735.94;4820207;28;123046;-91
2022/03/27 10:13:53;;;;;;;19.33;4.90;;;;;;;14.96;49.43;102744.34;4819553;29;122410;-93
2022/03/27 10:16:28;;;;;;;21.25;5.47;;;;;;;14.99;48.28;102745.47;4820243;29;122128;-91
2022/03/27 10:19:05;;;;;;;19.67;4.88;;;;;;;14.91;48.90;102725.50;4800658;29;121300;-92
2022/03/27 10:21:32;;;;;;;25.70;6.15;;;;;;;14.95;49.49;102725.44;4816674;29;119949;-93
2022/03/27 10:24:13;;;;;;;24.58;6.43;;;;;;;15.09;49.34;102746.41;4825292;29;122466;-92
2022/03/27 10:26:40;;;;;;;18.80;5.65;;;;;;;15.10;49.91;102737.69;4826103;28;120365;-92
2022/03/27 10:29:08;;;;;;;24.02;6.03;;;;;;;15.16;50.38;102741.50;4862683;28;119814;-91
2022/03/27 10:31:34;;;;;;;24.02;6.22;;;;;;;15.08;50.39;102712.47;4820284;29;122051;-92
2022/03/27 10:34:02;;;;;;;27.02;6.35;;;;;;;15.24;50.76;102726.28;4836498;29;119919;-91
2022/03/27 10:37:10;;;;;;;22.25;6.22;;;;;;;15.31;50.38;102731.63;4803768;29;122365;-91
2022/03/27 10:39:55;;;;;;;23.10;5.82;;;;;;;15.33;51.76;102725.66;4835473;28;120236;-91
2022/03/27 10:43:03;;;;;;;23.67;5.63;;;;;;;15.45;52.05;102735.25;4823856;28;119646;-92
2022/03/27 10:45:30;;;;;;;24.95;5.18;;;;;;;15.49;51.62;102730.41;4831295;28;119507;-92
2022/03/27 10:48:10;;;;;;;14.80;3.92;;;;;;;15.60;52.29;102722.63;4831773;29;123158;-92
2022/03/27 10:50:50;;;;;;;21.30;5.18;;;;;;;15.70;50.97;102732.63;4807428;29;119764;-93
2022/03/27 10:53:18;;;;;;;19.20;4.90;;;;;;;15.65;49.18;102714.59;4818180;29;124159;-93
2022/03/27 10:55:46;;;;;;;20.27;4.72;;;;;;;15.75;49.89;102721.03;4803123;29;119979;-92
2022/03/27 10:58:30;;;;;;;25.08;5.43;;;;;;;15.83;50.02;102732.66;4817897;29;122062;-92
2022/03/27 11:00:58;;;;;;;23.08;5.10;;;;;;;15.83;50.40;102722.38;4802350;29;121950;-94
2022/03/27 11:04:04;;;;;;;20.05;5.20;;;;;;;15.93;48.93;102726.06;4834564;28;119430;-93
2022/03/27 11:06:35;;;;;;;20.10;5.05;;;;;;;15.90;51.42;102718.66;4833684;28;120115;-93
2022/03/27 11:09:04;;;;;;;22.77;4.90;;;;;;;15.95;51.29;102716.13;4816438;29;123176;-92
2022/03/27 11:11:36;;;;;;;20.80;4.68;;;;;;;16.07;50.56;102724.88;4818022;29;119902;-93
2022/03/27 11:14:09;;;;;;;22.13;5.03;;;;;;;16.11;49.11;102726.34;4804564;29;122629;-92
2022/03/27 11:17:04;;;;;;;24.08;4.63;;;;;;;16.11;48.67;102714.50;4815771;29;119506;-93
2022/03/27 11:19:47;;;;;;;22.98;4.85;;;;;;;16.08;47.92;102710.59;4802428;29;122678;-92
2022/03/27 11:22:51;;;;;;;20.75;4.40;;;;;;;16.15;48.63;102718.72;4833817;28;120889;-93
2022/03/27 11:25:38;;;;;;;15.45;4.00;;;;;;;16.17;49.75;102707.97;4800449;29;120236;-94
2022/03/27 11:28:07;;;;;;;13.02;3.17;;;;;;;16.21;47.82;102716.19;4799693;29;122616;-92
2022/03/27 11:30:45;;;;;;;15.57;3.38;;;;;;;16.17;47.06;102701.66;4803900;29;123580;-93
2022/03/27 11:33:21;;;;;;;12.70;3.15;;;;;;;16.14;47.62;102691.47;4802686;29;119834;-92
2022/03/27 11:36:09;;;;;;;13.00;3.67;;;;;;;16.23;47.62;102692.38;4833234;28;119908;-91
2022/03/27 11:38:43;;;;;;;19.48;4.40;;;;;;;16.25;47.32;102695.47;4805176;29;122034;-93
2022/03/27 11:41:42;;;;;;;15.75;3.50;;;;;;;16.25;46.99;102697.47;4815724;29;122504;-92
2022/03/27 11:47:21;;;;;;;15.93;4.00;;;;;;;16.31;46.85;102689.38;4816873;29;120799;-92
2022/03/27 11:49:48;;;;;;;12.25;3.50;;;;;;;16.37;46.80;102684.84;4817055;29;121052;-92
2022/03/27 11:52:18;;;;;;;13.57;3.55;;;;;;;16.29;47.64;102653.81;4817558;29;122166;-91
2022/03/27 11:54:46;;;;;;;13.93;3.78;;;;;;;16.24;46.90;102640.53;4817731;29;120172;-91
2022/03/27 11:57:18;;;;;;;17.88;3.95;;;;;;;16.03;47.02;102607.94;4817225;29;119854;-91
2022/03/27 11:59:53;;;;;;;12.38;3.50;;;;;;;16.00;47.84;102586.69;4802471;29;122984;-91
2022/03/27 12:02:27;;;;;;;11.95;3.20;;;;;;;16.07;47.46;102597.53;4837043;28;119572;-92
2022/03/27 12:04:59;;;;;;;16.30;3.47;;;;;;;16.60;47.15;102661.59;4802034;29;123791;-92
2022/03/27 12:07:28;;;;;;;15.98;4.10;;;;;;;16.60;47.61;102662.38;4818814;28;119644;-94
2022/03/27 12:10:01;;;;;;;15.63;3.33;;;;;;;16.44;47.01;102638.31;4817282;29;121223;-92
2022/03/27 12:12:28;;;;;;;18.02;4.00;;;;;;;16.27;47.75;102595.34;4820282;28;123298;-92
2022/03/27 12:15:04;;;;;;;14.20;3.42;;;;;;;16.48;47.60;102630.66;4833975;28;119825;-92
2022/03/27 12:17:32;;;;;;;11.18;2.80;;;;;;;16.51;47.12;102632.53;4817562;28;120985;-91
2022/03/27 12:20:09;;;;;;;17.23;5.65;;;;;;;16.53;49.12;102632.88;4804647;29;123667;-91
2022/03/27 12:22:45;;;;;;;12.43;3.72;;;;;;;16.71;47.06;102650.97;4805131;29;120717;-92
2022/03/27 12:25:21;;;;;;;17.52;3.60;;;;;;;16.57;47.34;102614.16;4823199;28;122113;-94
2022/03/27 12:30:45;;;;;;;13.25;3.55;;;;;;;16.78;47.70;102634.09;4849548;28;119770;-92
2022/03/27 12:33:11;;;;;;;14.30;5.00;;;;;;;16.77;48.72;102630.53;4834993;28;123063;-92
2022/03/27 12:35:36;;;;;;;14.30;5.15;;;;;;;16.81;49.60;102630.44;4819251;29;119943;-92
2022/03/27 12:38:02;;;;;;;10.93;2.70;;;;;;;16.88;49.04;102632.97;4835265;28;121482;-94
2022/03/27 12:40:40;;;;;;;9.50;2.53;;;;;;;16.87;49.10;102636.97;4803592;28;122277;-92
2022/03/27 12:43:15;;;;;;;8.98;2.50;;;;;;;16.55;49.08;102586.09;4817161;29;119699;-93
2022/03/27 12:45:44;;;;;;;9.95;3.22;;;;;;;16.84;49.28;102638.63;4820024;29;122428;-92
2022/03/27 12:48:23;;;;;;;10.63;2.55;;;;;;;16.62;49.48;102595.41;4820522;28;120695;-93
2022/03/27 12:50:56;;;;;;;10.13;2.83;;;;;;;16.58;49.62;102604.63;4820307;29;122559;-93
2022/03/27 12:53:22;;;;;;;8.47;2.43;;;;;;;16.83;50.03;102637.09;4816280;28;123929;-93
2022/03/27 12:55:56;;;;;;;5.18;2.33;;;;;;;16.77;50.54;102632.53;4803706;29;119917;-93
2022/03/27 12:58:41;;;;;;;5.18;2.30;;;;;;;16.78;50.74;102636.84;4805390;28;122009;-94
2022/03/27 13:01:15;;;;;;;6.07;2.30;;;;;;;16.75;51.03;102632.22;4819197;29;123481;-91
2022/03/27 13:04:00;;;;;;;5.57;2.40;;;;;;;16.29;51.38;102570.72;4801931;29;121453;-93
2022/03/27 13:06:42;;;;;;;3.65;1.50;;;;;;;16.46;51.06;102588.78;4806404;28;121711;-92
2022/03/27 13:09:22;;;;;;;4.03;2.03;;;;;;;16.53;51.03;102602.41;4809064;28;122772;-92
2022/03/27 13:11:48;;;;;;;4.75;1.80;;;;;;;16.27;51.39;102567.63;4802919;29;122229;-93
2022/03/27 13:14:15;;;;;;;4.50;1.92;;;;;;;16.36;51.54;102576.06;4819622;28;123317;-92
2022/03/27 13:16:58;;;;;;;3.83;2.03;;;;;;;16.51;51.34;102604.06;4820969;29;120197;-92
2022/03/27 13:19:42;;;;;;;4.68;2.03;;;;;;;16.59;51.24;102616.47;4821416;29;122176;-94
2022/03/27 13:22:08;;;;;;;3.28;1.90;;;;;;;16.44;51.71;102605.06;4834579;28;120494;-93
2022/03/27 13:24:34;;;;;;;3.03;1.98;;;;;;;16.35;52.16;102587.59;4835120;29;120008;-92
2022/03/27 13:27:09;;;;;;;1.58;1.33;;;;;;;16.21;51.59;102575.72;4804539;29;120984;-91
2022/03/27 13:29:44;;;;;;;4.22;2.65;;;;;;;16.05;52.33;102555.69;4803014;29;123026;-91
2022/03/27 13:32:10;;;;;;;2.75;1.40;;;;;;;16.49;52.51;102617.59;4822945;29;119838;-92
2022/03/27 13:34:37;;;;;;;4.38;2.42;;;;;;;16.01;52.94;102544.72;4818859;29;123316;-92
2022/03/27 13:37:03;;;;;;;4.35;2.67;;;;;;;16.10;54.12;102547.63;4803929;29;119823;-92
2022/03/27 13:39:39;;;;;;;1.83;1.55;;;;;;;16.12;52.86;102549.94;4820226;29;119930;-92
2022/03/27 13:44:58;;;;;;;3.63;1.65;;;;;;;16.51;52.20;102604.06;4819463;29;122414;-93
2022/03/27 13:47:25;;;;;;;1.42;1.33;;;;;;;16.50;52.03;102608.06;4803433;29;122417;-92
2022/03/27 13:49:51;;;;;;;2.78;1.40;;;;;;;16.39;52.10;102591.78;4803230;29;123904;-93
2022/03/27 13:52:17;;;;;;;2.25;1.70;;;;;;;16.32;53.05;102574.59;4819926;29;119652;-91
2022/03/27 13:54:42;;;;;;;3.08;1.90;;;;;;;16.12;54.08;102545.19;4823264;29;119929;-93
2022/03/27 13:57:10;;;;;;;4.55;1.40;;;;;;;16.42;53.08;102595.66;4833852;29;121689;-92
2022/03/27 13:59:36;;;;;;;1.58;1.20;;;;;;;16.31;52.70;102579.38;4820351;28;123019;-91
2022/03/27 14:02:03;;;;;;;3.67;1.30;;;;;;;16.30;52.36;102580.59;4834750;29;120459;-94
2022/03/27 14:04:29;;;;;;;2.20;1.50;;;;;;;16.04;52.31;102541.06;4818149;29;119682;-92
2022/03/27 14:06:57;;;;;;;2.33;1.30;;;;;;;15.83;51.94;102502.97;4819227;29;119908;-93
2022/03/27 14:13:29;;;;;;;2.97;1.92;;;;;;;16.18;52.72;102582.16;4836286;28;120068;-92
2022/03/27 14:15:55;;;;;;;3.83;1.80;;;;;;;16.19;52.08;102571.84;4819128;29;122172;-93
2022/03/27 14:18:21;;;;;;;1.60;1.50;;;;;;;16.17;52.63;102560.47;4821965;29;123380;-94
2022/03/27 14:20:46;;;;;;;3.03;1.60;;;;;;;16.20;53.18;102574.19;4819626;29;121318;-94
2022/03/27 14:23:12;;;;;;;2.63;1.50;;;;;;;16.19;52.63;102574.63;4817753;29;122087;-92
2022/03/27 14:25:38;;;;;;;2.30;1.42;;;;;;;16.21;52.63;102570.19;4834163;29;119675;-93
2022/03/27 14:28:04;;;;;;;2.85;1.73;;;;;;;16.26;52.68;102569.63;4813815;29;121966;-91
2022/03/27 14:30:34;;;;;;;3.15;2.40;;;;;;;16.17;53.61;102550.16;4802424;29;123853;-92
2022/03/27 14:33:00;;;;;;;5.95;2.40;;;;;;;16.25;54.14;102561.78;4818548;29;120065;-92
2022/03/27 14:35:26;;;;;;;3.10;2.25;;;;;;;16.07;53.19;102528.31;4818127;29;122116;-92
2022/03/27 14:37:51;;;;;;;2.83;2.30;;;;;;;16.26;52.55;102555.00;4803344;29;122941;-94
2022/03/27 14:40:17;;;;;;;4.43;3.05;;;;;;;15.97;54.03;102508.09;4806954;29;120725;-92
2022/03/27 14:42:43;;;;;;;3.08;2.10;;;;;;;16.01;54.35;102524.56;4802418;29;123119;-92
2022/03/27 14:45:14;;;;;;;3.75;2.80;;;;;;;15.81;53.47;102475.75;4802208;29;121286;-92
2022/03/27 14:47:49;;;;;;;5.05;2.60;;;;;;;16.07;52.67;102520.03;4819617;29;121872;-92
2022/03/27 14:50:27;;;;;;;3.72;2.63;;;;;;;15.82;52.92;102488.38;4818300;29;122121;-91
2022/03/27 14:52:56;;;;;;;4.93;2.90;;;;;;;15.81;53.12;102497.91;4817961;29;119918;-91
2022/03/27 14:58:14;;;;;;;4.07;2.92;;;;;;;15.51;52.32;102470.75;4818333;29;123089;-94
2022/03/27 15:00:50;;;;;;;3.22;2.53;;;;;;;15.69;52.43;102508.97;4807615;29;119762;-91
2022/03/27 15:03:18;;;;;;;5.60;2.60;;;;;;;15.68;52.64;102510.97;4799362;29;122903;-93
2022/03/27 15:05:44;;;;;;;5.35;2.80;;;;;;;15.66;52.47;102524.47;4799106;29;119650;-92
2022/03/27 15:08:12;;;;;;;5.78;2.50;;;;;;;15.65;52.67;102534.75;4816042;29;120547;-92
2022/03/27 15:10:41;;;;;;;6.85;2.53;;;;;;;15.71;52.58;102539.72;4818958;29;122801;-93
2022/03/27 15:13:09;;;;;;;4.47;2.10;;;;;;;15.22;52.51;102465.28;4818194;29;120670;-92
2022/03/27 15:15:35;;;;;;;3.53;1.98;;;;;;;15.24;52.07;102473.91;4802700;29;122186;-92
2022/03/27 15:18:01;;;;;;;4.10;1.67;;;;;;;15.25;52.54;102479.00;4817590;28;122629;-92
2022/03/27 15:20:27;;;;;;;4.63;1.63;;;;;;;15.11;52.65;102467.56;4816561;29;122066;-91
2022/03/27 15:22:53;;;;;;;3.58;1.50;;;;;;;15.33;52.78;102518.28;4821089;29;122385;-91
2022/03/27 15:25:22;;;;;;;2.45;1.60;;;;;;;14.97;52.82;102471.53;4803624;29;119826;-92
2022/03/27 15:27:50;;;;;;;4.57;1.98;;;;;;;15.18;54.55;102500.56;4818047;29;120936;-92
2022/03/27 15:30:21;;;;;;;3.95;1.65;;;;;;;15.15;55.22;102501.44;4817504;29;122857;-92
2022/03/27 15:32:47;;;;;;;2.88;1.30;;;;;;;15.13;53.53;102498.31;4802564;29;119543;-92
2022/03/27 15:35:13;;;;;;;3.90;1.50;;;;;;;14.77;53.41;102452.34;4817789;29;121773;-92
2022/03/27 15:37:39;;;;;;;2.78;1.70;;;;;;;15.10;53.39;102513.78;4801481;28;123245;-93
2022/03/27 15:40:08;;;;;;;2.22;1.50;;;;;;;14.66;53.64;102438.03;4818161;29;121060;-92
2022/03/27 15:42:41;;;;;;;3.97;1.20;;;;;;;14.68;55.38;102438.38;4804289;29;122271;-91
2022/03/27 15:45:11;;;;;;;2.88;1.17;;;;;;;15.13;54.21;102518.44;4820018;29;123162;-94
2022/03/27 15:47:48;;;;;;;2.35;1.42;;;;;;;14.64;53.36;102451.50;4817895;29;121868;-92
2022/03/27 15:50:21;;;;;;;2.88;1.30;;;;;;;14.56;54.89;102434.34;4802254;29;122957;-92
2022/03/27 15:52:49;;;;;;;3.30;1.35;;;;;;;14.82;55.10;102484.19;4818286;29;119757;-92
2022/03/27 15:55:17;;;;;;;2.22;1.38;;;;;;;14.67;53.73;102456.94;4819550;29;122301;-91
2022/03/27 15:58:00;;;;;;;6.00;1.52;;;;;;;14.55;53.81;102446.59;4820188;28;122731;-90
2022/03/27 16:00:27;;;;;;;7.57;1.42;;;;;;;14.83;53.39;102494.00;4820586;29;120557;-94
2022/03/27 16:02:58;;;;;;;3.90;1.35;;;;;;;14.99;53.34;102514.09;4820883;29;120564;-92
2022/03/27 16:05:27;;;;;;;3.45;1.70;;;;;;;15.01;54.37;102510.88;4819742;29;121976;-92
2022/03/27 16:07:53;;;;;;;2.95;1.52;;;;;;;14.85;53.97;102495.13;4809550;29;119731;-91
2022/03/27 16:10:25;;;;;;;2.83;1.80;;;;;;;14.50;54.25;102452.66;4820111;29;122762;-92
2022/03/27 16:12:56;;;;;;;4.53;1.50;;;;;;;14.73;54.23;102485.59;4820689;29;120283;-92
2022/03/27 16:15:24;;;;;;;3.22;1.77;;;;;;;14.47;53.80;102459.06;4820124;29;120010;-91
2022/03/27 16:17:55;;;;;;;4.00;1.40;;;;;;;14.44;53.68;102446.13;4804848;29;122133;-91
2022/03/27 16:20:23;;;;;;;4.22;1.50;;;;;;;14.89;53.69;102517.13;4804524;29;119577;-93
2022/03/27 16:22:51;;;;;;;3.35;1.60;;;;;;;14.70;54.88;102488.44;4801843;29;122262;-92
2022/03/27 16:25:38;;;;;;;3.45;1.58;;;;;;;14.69;53.62;102482.16;4803850;28;123251;-92
2022/03/27 16:28:08;;;;;;;5.75;1.55;;;;;;;14.32;52.64;102444.81;4816526;29;121483;-93
2022/03/27 16:30:40;;;;;;;2.35;1.20;;;;;;;14.17;53.04;102440.06;4835610;29;119608;-91
2022/03/27 16:33:08;;;;;;;3.00;1.50;;;;;;;14.16;53.13;102446.81;4815932;29;120073;-90
2022/03/27 16:35:38;;;;;;;3.95;1.30;;;;;;;14.33;52.77;102498.03;4816531;29;122009;-90
2022/03/27 16:38:05;;;;;;;4.00;1.52;;;;;;;14.15;52.95;102476.38;4800339;29;123287;-91
2022/03/27 16:40:47;;;;;;;3.13;1.40;;;;;;;13.86;53.29;102454.22;4816640;29;119797;-90
2022/03/27 16:43:16;;;;;;;5.00;1.63;;;;;;;14.26;53.15;102539.63;4831232;29;120430;-90
2022/03/27 16:45:43;;;;;;;3.75;1.50;;;;;;;14.09;53.53;102514.75;4799400;29;123305;-92
2022/03/27 16:48:08;;;;;;;4.63;1.48;;;;;;;13.93;53.69;102497.41;4816152;28;120022;-91
2022/03/27 16:50:34;;;;;;;2.92;1.42;;;;;;;13.76;54.30;102489.13;4800392;29;122559;-91
2022/03/27 16:53:02;;;;;;;3.00;1.58;;;;;;;13.96;54.39;102524.13;4803347;29;123030;-91
2022/03/27 16:55:30;;;;;;;2.42;1.60;;;;;;;13.95;54.17;102534.41;4815558;29;122583;-91
2022/03/27 16:57:56;;;;;;;2.55;1.60;;;;;;;13.80;54.08;102530.41;4799121;29;123320;-92
2022/03/27 17:00:22;;;;;;;3.22;1.60;;;;;;;13.70;54.16;102523.13;4815892;29;120150;-90
2022/03/27 17:02:48;;;;;;;4.30;1.48;;;;;;;13.50;54.13;102496.41;4814583;29;122022;-90
2022/03/27 17:05:14;;;;;;;4.88;1.60;;;;;;;13.63;54.42;102528.81;4829877;29;120807;-93
2022/03/27 17:07:40;;;;;;;5.05;1.77;;;;;;;13.49;54.73;102513.38;4815150;29;120168;-92
2022/03/27 17:10:07;;;;;;;5.45;2.22;;;;;;;13.44;54.73;102517.38;4815867;29;123257;-92
2022/03/27 17:12:33;;;;;;;3.05;1.70;;;;;;;13.33;55.22;102510.53;4818514;29;123070;-91
2022/03/27 17:15:05;;;;;;;3.53;1.70;;;;;;;13.35;55.08;102525.47;4799849;29;122003;-90
2022/03/27 17:17:31;;;;;;;6.53;2.05;;;;;;;13.25;55.40;102514.63;4799751;29;123504;-91
2022/03/27 17:19:57;;;;;;;4.43;1.60;;;;;;;13.14;55.18;102501.03;4816268;29;120017;-92
2022/03/27 17:22:23;;;;;;;3.55;1.40;;;;;;;12.83;55.50;102457.19;4815791;29;121127;-92
2022/03/27 17:24:50;;;;;;;4.65;1.58;;;;;;;12.79;56.00;102466.72;4814230;29;122228;-92
2022/03/27 17:27:16;;;;;;;4.82;1.60;;;;;;;12.88;55.55;102498.00;4831086;29;119602;-92
2022/03/27 17:29:43;;;;;;;4.40;1.45;;;;;;;12.91;55.73;102502.66;4815414;29;122699;-93
2022/03/27 17:32:09;;;;;;;4.35;1.70;;;;;;;12.91;55.83;102510.91;4813718;29;120361;-90
2022/03/27 17:34:35;;;;;;;4.07;1.70;;;;;;;12.57;55.88;102455.31;4819546;29;120146;-92
2022/03/27 17:37:02;;;;;;;4.35;1.77;;;;;;;12.56;56.16;102464.75;4800019;29;123760;-94
2022/03/27 17:39:29;;;;;;;3.45;1.63;;;;;;;12.76;56.15;102512.38;4800597;29;119482;-91
2022/03/27 17:41:55;;;;;;;5.35;1.65;;;;;;;12.50;56.64;102466.44;4814678;29;122550;-91
2022/03/27 17:44:21;;;;;;;4.47;2.08;;;;;;;12.73;56.70;102509.69;4815246;28;123607;-92
2022/03/27 17:46:47;;;;;;;10.88;2.22;;;;;;;12.70;56.77;102505.78;4814557;28;122047;-92
2022/03/27 17:49:17;;;;;;;3.45;1.60;;;;;;;12.49;56.59;102479.41;4829733;29;122113;-90
2022/03/27 17:51:53;;;;;;;5.70;1.50;;;;;;;12.14;56.49;102425.00;4798953;29;122857;-92
2022/03/27 17:54:29;;;;;;;5.30;1.57;;;;;;;12.39;56.33;102471.34;4813908;29;120959;-91
2022/03/27 17:56:55;;;;;;;6.40;1.85;;;;;;;12.29;56.37;102467.56;4811347;29;121655;-91
2022/03/27 17:59:23;;;;;;;4.70;1.60;;;;;;;12.47;56.26;102505.81;4803255;29;119801;-91
2022/03/27 18:02:02;;;;;;;;;;;;;;;;;;;;;
2022/03/27 18:04:33;;;;;;;5.07;1.40;;;;;;;12.33;56.70;102478.53;4819542;28;122096;-91
2022/03/27 18:07:12;;;;;;;;;;;;;;;;;;;;;
2022/03/27 18:09:54;;;;;;;4.65;1.67;;;;;;;12.09;56.65;102448.25;4832855;29;119853;-90
2022/03/27 18:12:37;;;;;;;;;;;;;;;;;;;;;
2022/03/27 18:15:14;;;;;;;;;;;;;;;;;;;;;
2022/03/27 18:17:49;;;;;;;6.30;1.90;;;;;;;12.20;56.89;102476.38;4830307;28;121035;-91
2022/03/27 18:20:20;;;;;;;6.13;1.58;;;;;;;12.18;56.90;102473.25;4820862;28;123486;-90
2022/03/27 18:22:48;;;;;;;5.70;1.80;;;;;;;11.88;56.76;102438.38;4814339;29;121789;-92
2022/03/27 18:25:17;;;;;;;6.75;1.55;;;;;;;12.21;56.97;102482.66;4799578;28;122816;-89
2022/03/27 18:27:43;;;;;;;6.60;1.60;;;;;;;12.11;56.73;102475.34;4832964;28;120099;-92
2022/03/27 18:30:09;;;;;;;5.40;1.60;;;;;;;12.01;56.96;102466.06;4798545;28;122568;-90
2022/03/27 18:32:35;;;;;;;8.02;1.90;;;;;;;12.23;57.02;102500.28;4815447;29;123480;-90
2022/03/27 18:35:01;;;;;;;6.60;2.53;;;;;;;12.01;57.30;102462.53;4831957;28;119946;-89
2022/03/27 18:37:27;;;;;;;7.45;2.47;;;;;;;12.17;57.46;102488.22;4816468;28;122216;-92
2022/03/27 18:39:52;;;;;;;3.67;1.60;;;;;;;12.24;57.67;102492.81;4815772;29;123043;-89
2022/03/27 18:42:18;;;;;;;8.00;2.10;;;;;;;12.20;57.44;102492.88;4820350;29;119823;-91
2022/03/27 18:44:44;;;;;;;6.55;2.00;;;;;;;12.15;57.36;102485.09;4814381;29;120575;-91
2022/03/27 18:47:10;;;;;;;9.63;2.17;;;;;;;12.17;57.60;102487.44;4802197;29;119625;-90
2022/03/27 18:49:36;;;;;;;8.15;2.42;;;;;;;12.14;57.37;102483.56;4816916;29;121668;-93
2022/03/27 18:52:03;;;;;;;7.32;2.03;;;;;;;12.26;57.18;102499.44;4800110;29;123200;-90
2022/03/27 18:54:29;;;;;;;6.70;2.60;;;;;;;12.27;57.35;102497.47;4800873;28;120315;-91
2022/03/27 18:56:55;;;;;;;6.55;2.13;;;;;;;12.20;57.10;102490.13;4816510;29;122052;-90
2022/03/27 18:59:20;;;;;;;6.38;2.20;;;;;;;12.04;57.55;102467.19;4815715;28;123938;-90
2022/03/27 19:01:46;;;;;;;5.43;2.17;;;;;;;12.22;57.11;102489.72;4818057;29;119762;-92
2022/03/27 19:04:23;;;;;;;9.13;2.65;;;;;;;11.77;57.22;102425.94;4824619;29;122057;-91
2022/03/27 19:07:00;;;;;;;7.32;2.30;;;;;;;11.87;57.33;102436.81;4817784;29;121100;-91
2022/03/27 19:09:36;;;;;;;5.60;2.28;;;;;;;11.79;57.08;102429.84;4834779;28;120453;-91
2022/03/27 19:12:13;;;;;;;7.38;2.28;;;;;;;11.89;57.29;102452.91;4817308;28;122513;-91
2022/03/27 19:14:53;;;;;;;10.25;2.88;;;;;;;11.76;57.30;102435.38;4817505;29;119562;-93
2022/03/27 19:17:34;;;;;;;5.57;2.22;;;;;;;12.08;57.42;102495.44;4819581;28;121624;-91
2022/03/27 19:20:02;;;;;;;4.10;2.15;;;;;;;11.84;57.49;102458.88;4818097;29;123228;-91
2022/03/27 19:22:44;;;;;;;6.45;2.30;;;;;;;12.02;57.70;102486.09;4817728;29;119847;-91
2022/03/27 19:25:13;;;;;;;6.60;2.47;;;;;;;11.77;57.64;102456.97;4822109;29;122187;-91
2022/03/27 19:27:46;;;;;;;6.43;2.38;;;;;;;11.41;58.04;102417.44;4988322;23;124781;-91
2022/03/27 19:30:19;;;;;;;4.15;2.22;;;;;;;11.55;57.94;102429.00;4806539;28;120922;-92
2022/03/27 19:32:46;;;;;;;5.15;2.03;;;;;;;11.35;57.96;102408.88;4812130;29;121925;-92
2022/03/27 19:35:24;;;;;;;;;;;;;;;;;;;;;
2022/03/27 19:38:39;;;;;;;8.40;2.22;;;;;;;11.88;58.66;102490.63;4831511;23;119519;31